Time;durP1;ratioP1;P1;durP2;ratioP2;P2;SDS_P1;SDS_P2;PMS_P1;PMS_P2;Temp;Humidity;BMP_temperature;BMP_pressure;BME280_temperature;BME280_humidity;BME280_pressure;Samples;Min_cycle;Max_cycle;Signal;HPM_P1;HPM_P2
2021/10/29 00:01:03;;;;;;;14.68;8.32;;;11.40;99.90;;;;;;4970768;28;20455;-69
2021/10/29 00:03:28;;;;;;;12.68;7.18;;;11.40;99.90;;;;;;4971724;28;20086;-69
2021/10/29 00:05:54;;;;;;;15.20;7.63;;;11.30;99.90;;;;;;4971664;28;20491;-69
2021/10/29 00:08:19;;;;;;;12.73;7.10;;;11.30;99.90;;;;;;4972078;28;20038;-69
2021/10/29 00:10:45;;;;;;;13.13;7.57;;;11.30;99.90;;;;;;4970747;28;20027;-69
2021/10/29 00:13:11;;;;;;;12.55;6.70;;;11.30;99.90;;;;;;4971609;28;20101;-70
2021/10/29 00:15:38;;;;;;;10.95;6.68;;;11.20;99.90;;;;;;4970936;28;20023;-69
2021/10/29 00:18:04;;;;;;;13.00;7.57;;;11.20;99.90;;;;;;4971424;28;20408;-69
2021/10/29 00:20:29;;;;;;;12.38;7.85;;;11.20;99.90;;;;;;4970829;28;20098;-69
2021/10/29 00:22:55;;;;;;;10.82;7.18;;;11.10;99.90;;;;;;4965808;28;20027;-69
2021/10/29 00:25:20;;;;;;;15.77;7.40;;;11.10;99.90;;;;;;4971139;28;20030;-69
2021/10/29 00:27:47;;;;;;;13.93;7.63;;;11.10;99.90;;;;;;4970714;28;20034;-69
2021/10/29 00:30:12;;;;;;;13.05;6.68;;;11.00;99.90;;;;;;4970286;28;20391;-69
2021/10/29 00:32:38;;;;;;;11.68;7.03;;;11.00;99.90;;;;;;4971552;28;20019;-69
2021/10/29 00:35:04;;;;;;;13.57;7.15;;;11.00;99.90;;;;;;4969155;28;20110;-69
2021/10/29 00:37:37;;;;;;;14.93;7.82;;;11.00;99.90;;;;;;4970026;28;20396;-69
2021/10/29 00:40:06;;;;;;;12.88;6.65;;;11.00;99.90;;;;;;4971104;28;20404;-70
2021/10/29 00:42:33;;;;;;;15.57;7.65;;;10.90;99.90;;;;;;4971161;28;20484;-70
2021/10/29 00:44:58;;;;;;;14.18;7.18;;;10.90;99.90;;;;;;4970949;28;20089;-69
2021/10/29 00:47:24;;;;;;;13.27;7.10;;;10.90;99.90;;;;;;4971298;28;20472;-69
2021/10/29 00:49:50;;;;;;;13.98;6.82;;;10.90;99.90;;;;;;4970822;28;20476;-69
2021/10/29 00:52:16;;;;;;;13.52;7.25;;;10.90;99.90;;;;;;4971205;28;20030;-69
2021/10/29 00:54:42;;;;;;;11.30;6.78;;;10.90;99.90;;;;;;4971223;28;20411;-69
2021/10/29 00:57:08;;;;;;;14.55;8.23;;;10.90;99.90;;;;;;4970690;28;20030;-69
2021/10/29 00:59:33;;;;;;;14.27;6.85;;;10.90;99.90;;;;;;4969895;28;20530;-70
2021/10/29 01:01:59;;;;;;;12.52;6.55;;;10.90;99.90;;;;;;4968881;28;20038;-69
2021/10/29 01:04:25;;;;;;;12.80;6.43;;;10.90;99.90;;;;;;4965681;28;20027;-69
2021/10/29 01:06:51;;;;;;;14.52;7.00;;;10.90;99.90;;;;;;4971004;28;20110;-69
2021/10/29 01:09:16;;;;;;;13.27;6.18;;;10.90;99.90;;;;;;4971712;28;20106;-69
2021/10/29 01:11:43;;;;;;;13.38;7.28;;;10.90;99.90;;;;;;4975090;28;20186;-69
2021/10/29 01:14:09;;;;;;;13.80;6.57;;;10.90;99.90;;;;;;4974454;28;20018;-69
2021/10/29 01:16:35;;;;;;;9.75;6.20;;;10.90;99.90;;;;;;4975058;28;20477;-69
2021/10/29 01:19:00;;;;;;;11.88;6.07;;;10.90;99.90;;;;;;4974463;28;20023;-69
2021/10/29 01:21:26;;;;;;;13.85;6.43;;;10.80;99.90;;;;;;4974700;28;20058;-69
2021/10/29 01:23:51;;;;;;;12.00;6.85;;;10.80;99.90;;;;;;4974361;28;20050;-69
2021/10/29 01:26:17;;;;;;;13.20;5.97;;;10.80;99.90;;;;;;4975125;28;20046;-69
2021/10/29 01:28:44;;;;;;;11.18;6.25;;;10.80;99.90;;;;;;4974857;28;20476;-70
2021/10/29 01:31:10;;;;;;;11.90;6.60;;;10.80;99.90;;;;;;4974418;28;20026;-69
2021/10/29 01:33:37;;;;;;;9.25;6.15;;;10.80;99.90;;;;;;4975052;28;20077;-69
2021/10/29 01:36:03;;;;;;;12.32;6.60;;;10.80;99.90;;;;;;4974840;28;20023;-69
2021/10/29 01:38:40;;;;;;;11.48;7.32;;;10.80;99.90;;;;;;4972921;28;20030;-69
2021/10/29 01:41:07;;;;;;;10.55;6.00;;;10.80;99.90;;;;;;4974826;28;20428;-69
2021/10/29 01:43:44;;;;;;;14.48;6.85;;;10.80;99.90;;;;;;4973812;28;20018;-69
2021/10/29 01:46:10;;;;;;;13.80;7.72;;;10.80;99.90;;;;;;4973544;28;20538;-70
2021/10/29 01:48:50;;;;;;;11.52;6.80;;;10.80;99.90;;;;;;4972551;28;20077;-69
2021/10/29 01:51:16;;;;;;;11.75;6.55;;;10.80;99.90;;;;;;4974518;28;20023;-70
2021/10/29 01:53:42;;;;;;;11.93;7.65;;;10.80;99.90;;;;;;4973524;28;20114;-69
2021/10/29 01:56:07;;;;;;;10.13;6.72;;;10.80;99.90;;;;;;4972580;28;20451;-69
2021/10/29 01:58:34;;;;;;;13.13;6.80;;;10.80;99.90;;;;;;4972877;28;20031;-69
2021/10/29 02:01:00;;;;;;;10.73;6.18;;;10.80;99.90;;;;;;4972730;28;20037;-69
2021/10/29 02:03:26;;;;;;;10.00;5.85;;;10.80;99.90;;;;;;4972869;28;20061;-69
2021/10/29 02:05:52;;;;;;;9.52;5.43;;;10.80;99.90;;;;;;4974223;28;20030;-69
2021/10/29 02:08:23;;;;;;;13.02;6.72;;;10.80;99.90;;;;;;4974034;28;20030;-70
2021/10/29 02:10:48;;;;;;;12.98;6.05;;;10.80;99.90;;;;;;4973979;28;20051;-69
2021/10/29 02:13:14;;;;;;;12.32;6.40;;;10.80;99.90;;;;;;4972676;28;20063;-69
2021/10/29 02:15:40;;;;;;;12.77;5.75;;;10.80;99.90;;;;;;4959599;28;20117;-69
2021/10/29 02:18:05;;;;;;;10.93;7.80;;;10.70;99.90;;;;;;4961663;28;20153;-69
2021/10/29 02:20:31;;;;;;;13.25;6.82;;;10.70;99.90;;;;;;4959688;28;20459;-69
2021/10/29 02:22:57;;;;;;;10.43;5.63;;;10.80;99.90;;;;;;4960147;28;20028;-69
2021/10/29 02:25:22;;;;;;;11.85;6.60;;;10.80;99.90;;;;;;4960178;28;20054;-69
2021/10/29 02:27:48;;;;;;;11.05;6.85;;;10.70;99.90;;;;;;4963447;28;20026;-69
2021/10/29 02:30:14;;;;;;;10.90;6.07;;;10.70;99.90;;;;;;4960272;28;20047;-70
2021/10/29 02:32:39;;;;;;;11.80;6.68;;;10.70;99.90;;;;;;4957611;28;20571;-69
2021/10/29 02:35:05;;;;;;;11.35;5.80;;;10.70;99.90;;;;;;4958631;28;20035;-69
2021/10/29 02:37:31;;;;;;;11.38;6.00;;;10.70;99.90;;;;;;4962402;28;20421;-69
2021/10/29 02:39:56;;;;;;;14.02;6.75;;;10.70;99.90;;;;;;4962089;28;20023;-69
2021/10/29 02:42:22;;;;;;;10.23;5.75;;;10.70;99.90;;;;;;4959606;28;20150;-69
2021/10/29 02:44:47;;;;;;;13.57;7.38;;;10.70;99.90;;;;;;4959303;28;20037;-69
2021/10/29 02:47:13;;;;;;;10.98;5.82;;;10.70;99.90;;;;;;4959468;28;20026;-69
2021/10/29 02:49:40;;;;;;;8.02;5.47;;;10.60;99.90;;;;;;4957410;28;20038;-69
2021/10/29 02:52:06;;;;;;;9.40;5.60;;;10.60;99.90;;;;;;4958970;28;20476;-69
2021/10/29 02:54:31;;;;;;;12.60;6.13;;;10.60;99.90;;;;;;4957033;28;20114;-69
2021/10/29 02:56:57;;;;;;;9.90;6.72;;;10.60;99.90;;;;;;4961481;28;20170;-69
2021/10/29 02:59:22;;;;;;;15.30;7.32;;;10.60;99.90;;;;;;4958819;28;20019;-69
2021/10/29 03:01:48;;;;;;;9.18;5.95;;;10.60;99.90;;;;;;4957248;28;20052;-69
2021/10/29 03:04:13;;;;;;;9.65;5.85;;;10.60;99.90;;;;;;4958822;28;20027;-69
2021/10/29 03:06:39;;;;;;;13.15;5.82;;;10.60;99.90;;;;;;4956436;28;20012;-69
2021/10/29 03:09:05;;;;;;;11.13;6.18;;;10.60;99.90;;;;;;4960980;28;20575;-69
2021/10/29 03:11:30;;;;;;;14.15;6.72;;;10.60;99.90;;;;;;4958828;28;20035;-69
2021/10/29 03:13:56;;;;;;;10.02;6.30;;;10.60;99.90;;;;;;4958238;28;20118;-69
2021/10/29 03:16:21;;;;;;;12.20;5.72;;;10.50;99.90;;;;;;4959244;28;20130;-69
2021/10/29 03:18:47;;;;;;;10.85;6.15;;;10.50;99.90;;;;;;4959311;28;20027;-69
2021/10/29 03:21:13;;;;;;;12.45;6.20;;;10.50;99.90;;;;;;4971083;28;20022;-69
2021/10/29 03:23:38;;;;;;;13.15;5.78;;;10.50;99.90;;;;;;4957964;28;20034;-69
2021/10/29 03:26:04;;;;;;;10.20;5.05;;;10.50;99.90;;;;;;4957610;28;20026;-69
2021/10/29 03:28:29;;;;;;;14.13;5.80;;;10.60;99.90;;;;;;4956969;28;20027;-69
2021/10/29 03:30:55;;;;;;;11.20;6.03;;;10.60;99.90;;;;;;4958763;28;20023;-69
2021/10/29 03:33:20;;;;;;;13.07;6.45;;;10.60;99.90;;;;;;4958201;28;20128;-69
2021/10/29 03:35:46;;;;;;;12.43;6.10;;;10.60;99.90;;;;;;4969182;28;20022;-69
2021/10/29 03:43:24;;;;;;;12.32;5.00;;;10.70;99.90;;;;;;4972356;28;20466;-69
2021/10/29 03:48:19;;;;;;;14.10;7.45;;;10.70;99.90;;;;;;4972231;28;20074;-69
2021/10/29 03:50:59;;;;;;;13.88;5.28;;;10.70;99.90;;;;;;4968513;28;20027;-69
2021/10/29 03:53:32;;;;;;;10.40;5.43;;;10.80;99.90;;;;;;4965428;28;20053;-69
2021/10/29 03:56:00;;;;;;;10.82;5.30;;;10.80;99.90;;;;;;4972008;28;20094;-69
2021/10/29 03:58:25;;;;;;;12.30;5.07;;;10.80;99.90;;;;;;4972378;28;20026;-70
2021/10/29 04:00:51;;;;;;;12.02;5.47;;;10.90;99.90;;;;;;4971926;28;20030;-69
2021/10/29 04:03:17;;;;;;;12.13;5.90;;;10.90;99.90;;;;;;4971337;28;20027;-70
2021/10/29 04:05:43;;;;;;;9.88;5.43;;;10.90;99.90;;;;;;4971861;28;20526;-69
2021/10/29 04:08:10;;;;;;;9.55;5.35;;;10.90;99.90;;;;;;4970105;28;20162;-69
2021/10/29 04:10:40;;;;;;;10.75;5.07;;;10.90;99.90;;;;;;4964129;28;20019;-69
2021/10/29 04:13:09;;;;;;;;;;;10.90;99.90;;;;;;4972326;28;20038;-69
2021/10/29 04:15:37;;;;;;;14.65;6.82;;;11.00;99.90;;;;;;4971284;28;19960;-69
2021/10/29 04:18:02;;;;;;;8.18;4.70;;;10.90;99.90;;;;;;4961236;28;20019;-69
2021/10/29 04:20:28;;;;;;;9.40;5.20;;;10.90;99.90;;;;;;4965949;28;20034;-69
2021/10/29 04:22:54;;;;;;;8.15;4.50;;;11.00;99.90;;;;;;4971904;28;20107;-70
2021/10/29 04:25:19;;;;;;;13.25;5.68;;;11.00;99.90;;;;;;4971560;28;20053;-69
2021/10/29 04:27:49;;;;;;;11.38;6.00;;;11.00;99.90;;;;;;4962379;28;20022;-69
2021/10/29 04:30:20;;;;;;;9.60;5.57;;;11.00;99.90;;;;;;4965275;28;20109;-70
2021/10/29 04:32:45;;;;;;;9.45;5.10;;;11.10;99.90;;;;;;4971108;28;20023;-69
2021/10/29 04:35:11;;;;;;;10.35;4.13;;;11.00;99.90;;;;;;4967971;28;20023;-70
2021/10/29 04:37:39;;;;;;;11.27;5.30;;;11.10;99.90;;;;;;4967190;28;20026;-69
2021/10/29 04:40:05;;;;;;;12.27;5.43;;;11.10;99.90;;;;;;4971640;28;20536;-69
2021/10/29 04:42:31;;;;;;;11.90;5.25;;;11.10;99.90;;;;;;4970770;28;20109;-69
2021/10/29 04:44:56;;;;;;;11.90;6.10;;;11.10;99.90;;;;;;4970886;28;20105;-69
2021/10/29 04:47:22;;;;;;;9.95;5.63;;;11.10;99.90;;;;;;4971905;28;20027;-69
2021/10/29 04:49:47;;;;;;;9.05;5.15;;;11.10;99.90;;;;;;4970774;28;20050;-69
2021/10/29 04:52:13;;;;;;;9.13;4.40;;;11.10;99.90;;;;;;4971525;28;20392;-69
2021/10/29 04:54:39;;;;;;;10.00;5.70;;;11.10;99.90;;;;;;4970422;28;20041;-69
2021/10/29 04:57:04;;;;;;;12.20;5.13;;;11.10;99.90;;;;;;4971542;28;20388;-69
2021/10/29 04:59:30;;;;;;;7.35;4.72;;;11.10;99.90;;;;;;4970865;28;20481;-69
2021/10/29 05:01:55;;;;;;;8.90;5.05;;;11.10;99.90;;;;;;4971466;28;20436;-70
2021/10/29 05:04:23;;;;;;;7.95;4.53;;;11.10;99.90;;;;;;4971259;28;20497;-69
2021/10/29 05:06:48;;;;;;;10.20;5.18;;;11.00;99.90;;;;;;4970999;28;20465;-69
2021/10/29 05:09:14;;;;;;;11.07;5.03;;;11.00;99.90;;;;;;4971886;28;20019;-70
2021/10/29 05:11:39;;;;;;;11.07;4.60;;;11.00;99.90;;;;;;4971568;28;20034;-69
2021/10/29 05:14:05;;;;;;;10.45;4.60;;;11.00;99.90;;;;;;4970528;28;20535;-69
2021/10/29 05:16:30;;;;;;;9.50;4.97;;;11.00;99.90;;;;;;4971494;28;20031;-70
2021/10/29 05:18:56;;;;;;;8.13;5.13;;;11.00;99.90;;;;;;4970201;28;20027;-70
2021/10/29 05:21:22;;;;;;;8.88;4.82;;;11.00;99.90;;;;;;4971761;28;20033;-69
2021/10/29 05:23:48;;;;;;;10.70;5.13;;;11.00;99.90;;;;;;4970582;28;20432;-69
2021/10/29 05:26:13;;;;;;;14.38;6.13;;;11.00;99.90;;;;;;4959384;28;20015;-69
2021/10/29 05:28:39;;;;;;;12.73;5.30;;;10.90;99.90;;;;;;4968614;28;20033;-69
2021/10/29 05:31:05;;;;;;;8.57;4.78;;;10.90;99.90;;;;;;4965729;28;20435;-69
2021/10/29 05:33:31;;;;;;;9.55;5.63;;;10.80;99.90;;;;;;4970998;28;20027;-69
2021/10/29 05:35:56;;;;;;;8.82;4.50;;;10.80;99.90;;;;;;4970634;28;20042;-69
2021/10/29 05:38:22;;;;;;;10.30;5.70;;;10.80;99.90;;;;;;4971146;28;20726;-69
2021/10/29 05:40:48;;;;;;;9.65;5.10;;;10.70;99.90;;;;;;4970546;28;20556;-69
2021/10/29 05:43:13;;;;;;;10.15;4.45;;;10.70;99.90;;;;;;4971226;28;20508;-70
2021/10/29 05:45:39;;;;;;;8.60;4.75;;;10.70;99.90;;;;;;4971229;28;20443;-70
2021/10/29 05:48:06;;;;;;;9.13;5.07;;;10.70;99.90;;;;;;4970188;28;20511;-69
2021/10/29 05:50:33;;;;;;;8.32;5.13;;;10.60;99.90;;;;;;4970587;28;20065;-69
2021/10/29 05:53:02;;;;;;;8.82;5.82;;;10.60;99.90;;;;;;4970387;28;20044;-69
2021/10/29 05:55:28;;;;;;;10.57;5.13;;;10.60;99.90;;;;;;4970307;28;20400;-69
2021/10/29 05:57:54;;;;;;;12.82;5.15;;;10.60;99.90;;;;;;4962475;28;20030;-69
2021/10/29 06:00:29;;;;;;;8.88;5.28;;;10.60;99.90;;;;;;4966177;28;20034;-69
2021/10/29 06:02:55;;;;;;;12.75;6.30;;;10.60;99.90;;;;;;4971473;28;20046;-69
2021/10/29 06:05:21;;;;;;;10.93;6.15;;;10.50;99.90;;;;;;4970793;28;20026;-69
2021/10/29 06:07:48;;;;;;;11.32;5.50;;;10.50;99.90;;;;;;4974229;28;20027;-69
2021/10/29 06:10:15;;;;;;;11.88;6.00;;;10.50;99.90;;;;;;4971915;28;20019;-70
2021/10/29 06:12:43;;;;;;;12.93;5.57;;;10.50;99.90;;;;;;4972592;28;20062;-69
2021/10/29 06:15:09;;;;;;;15.10;6.18;;;10.50;99.90;;;;;;4964645;28;20019;-69
2021/10/29 06:17:35;;;;;;;8.10;5.63;;;10.50;99.90;;;;;;4973289;28;20027;-69
2021/10/29 06:20:02;;;;;;;18.52;6.45;;;10.40;99.90;;;;;;4973865;28;20026;-69
2021/10/29 06:22:31;;;;;;;10.38;5.57;;;10.40;99.90;;;;;;4973546;28;20451;-69
2021/10/29 06:24:59;;;;;;;11.30;5.93;;;10.30;99.90;;;;;;4977355;28;20162;-70
2021/10/29 06:29:50;;;;;;;10.00;5.38;;;10.30;99.90;;;;;;4973977;28;20035;-69
2021/10/29 06:32:17;;;;;;;12.57;5.70;;;10.30;99.90;;;;;;4973682;28;20027;-70
2021/10/29 06:34:43;;;;;;;9.13;5.60;;;10.30;99.90;;;;;;4972342;28;20052;-70
2021/10/29 06:37:18;;;;;;;9.80;5.88;;;10.30;99.90;;;;;;4972233;28;20019;-70
2021/10/29 06:39:47;;;;;;;10.02;6.00;;;10.30;99.90;;;;;;4973594;28;20029;-70
2021/10/29 06:42:16;;;;;;;14.95;6.72;;;10.30;99.90;;;;;;4973467;28;20014;-70
2021/10/29 06:45:12;;;;;;;10.88;5.57;;;10.30;99.90;;;;;;4972907;28;20030;-70
2021/10/29 06:47:43;;;;;;;8.93;5.57;;;10.30;99.90;;;;;;4969555;28;20083;-71
2021/10/29 07:00:41;;;;;;;9.88;5.57;;;10.30;99.90;;;;;;4961393;28;20038;-70
2021/10/29 07:12:07;;;;;;;11.43;6.55;;;10.40;99.90;;;;;;4968800;28;20042;-70
2021/10/29 07:41:51;;;;;;;14.77;5.80;;;10.90;99.90;;;;;;4972931;28;20038;-70
2021/10/29 07:44:19;;;;;;;11.65;6.47;;;10.90;99.90;;;;;;4982335;28;20050;-71
2021/10/29 07:46:45;;;;;;;9.15;5.72;;;11.00;99.90;;;;;;4971919;28;20023;-70
2021/10/29 07:49:11;;;;;;;9.95;4.43;;;11.10;99.90;;;;;;4971960;28;20081;-71
2021/10/29 07:51:39;;;;;;;7.10;4.50;;;11.20;99.90;;;;;;4970977;28;20436;-71
2021/10/29 07:54:06;;;;;;;8.20;4.15;;;11.50;99.90;;;;;;4962883;28;20457;-71
2021/10/29 07:56:32;;;;;;;8.75;3.90;;;12.10;99.90;;;;;;4971568;28;20101;-69
2021/10/29 07:58:57;;;;;;;5.57;3.60;;;12.70;99.90;;;;;;4963708;28;20138;-69
2021/10/29 08:01:23;;;;;;;8.00;3.65;;;13.40;99.90;;;;;;4970212;28;20102;-69
2021/10/29 08:03:48;;;;;;;7.10;3.50;;;14.00;99.90;;;;;;4970022;28;20510;-68
2021/10/29 08:06:14;;;;;;;6.05;2.92;;;14.60;99.90;;;;;;4969869;28;20532;-71
2021/10/29 08:08:40;;;;;;;5.82;3.00;;;15.10;99.90;;;;;;4971722;28;20239;-68
2021/10/29 08:11:05;;;;;;;8.10;3.53;;;15.50;99.90;;;;;;4970861;28;20031;-69
2021/10/29 08:13:31;;;;;;;7.95;3.45;;;16.00;99.90;;;;;;4971486;28;20025;-69
2021/10/29 08:15:59;;;;;;;8.88;4.55;;;16.40;99.90;;;;;;4970368;28;20546;-69
2021/10/29 08:18:26;;;;;;;5.15;3.05;;;16.80;99.00;;;;;;4971072;28;20098;-69
2021/10/29 08:20:53;;;;;;;6.25;3.45;;;17.10;98.40;;;;;;4966103;28;20015;-68
2021/10/29 08:23:18;;;;;;;6.20;3.25;;;17.40;97.90;;;;;;4971075;28;20077;-69
2021/10/29 08:25:44;;;;;;;6.60;2.95;;;17.80;97.20;;;;;;4966985;28;20042;-69
2021/10/29 08:28:10;;;;;;;6.75;3.20;;;18.10;96.10;;;;;;4970911;28;20036;-68
2021/10/29 08:30:35;;;;;;;5.93;2.85;;;18.30;95.40;;;;;;4970849;28;20030;-69
2021/10/29 08:33:01;;;;;;;6.03;3.10;;;18.50;94.80;;;;;;4970422;28;20510;-70
2021/10/29 08:35:27;;;;;;;5.07;2.80;;;18.50;94.20;;;;;;4970799;28;20027;-68
2021/10/29 08:37:53;;;;;;;6.82;3.00;;;18.60;93.80;;;;;;4967291;28;20103;-69
2021/10/29 08:40:21;;;;;;;10.13;3.25;;;18.80;93.10;;;;;;4970846;28;20057;-68
2021/10/29 08:42:48;;;;;;;6.78;3.45;;;18.90;93.30;;;;;;4974271;28;20019;-68
2021/10/29 08:45:14;;;;;;;8.55;3.20;;;19.00;92.80;;;;;;4970026;28;20023;-69
2021/10/29 08:47:44;;;;;;;9.48;3.45;;;19.20;92.40;;;;;;4969549;28;20035;-69
2021/10/29 08:50:17;;;;;;;6.25;3.45;;;19.10;91.90;;;;;;4968426;28;20056;-68
2021/10/29 08:52:47;;;;;;;6.90;4.22;;;19.30;92.00;;;;;;4962753;28;20027;-68
2021/10/29 08:55:14;;;;;;;7.38;3.25;;;19.50;91.70;;;;;;4970762;28;20058;-69
2021/10/29 08:57:43;;;;;;;14.90;3.60;;;19.60;91.30;;;;;;4970846;28;20027;-70
2021/10/29 09:00:24;;;;;;;6.50;3.50;;;19.80;90.60;;;;;;4969091;28;20023;-68
2021/10/29 09:03:14;;;;;;;6.60;3.25;;;19.90;90.40;;;;;;4970158;28;20022;-69
2021/10/29 09:05:57;;;;;;;5.28;3.05;;;19.80;90.30;;;;;;4967144;28;20489;-69
2021/10/29 09:11:33;;;;;;;7.80;3.78;;;20.10;89.70;;;;;;4963501;28;20039;-69
2021/10/29 09:31:33;;;;;;;8.27;3.75;;;19.70;88.80;;;;;;4971788;28;20034;-68
2021/10/29 09:34:10;;;;;;;6.82;3.28;;;19.60;88.80;;;;;;4974603;28;20027;-70
2021/10/29 09:36:49;;;;;;;6.65;2.50;;;19.30;89.10;;;;;;4969777;28;20118;-68
2021/10/29 09:39:20;;;;;;;10.45;3.70;;;19.20;89.60;;;;;;4973740;28;20022;-68
2021/10/29 09:41:46;;;;;;;7.00;2.47;;;19.40;89.90;;;;;;4974422;28;20072;-71
2021/10/29 09:44:13;;;;;;;6.63;2.85;;;19.40;89.70;;;;;;4969262;28;20497;-70
2021/10/29 09:47:05;;;;;;;9.18;2.97;;;19.50;89.30;;;;;;4961175;28;20109;-69
2021/10/29 09:49:35;;;;;;;6.25;2.83;;;19.50;88.70;;;;;;4963411;28;20066;-69
2021/10/29 09:54:50;;;;;;;6.10;2.88;;;19.80;88.50;;;;;;4965183;28;20039;-69
2021/10/29 09:57:21;;;;;;;4.30;2.55;;;19.80;87.80;;;;;;4959710;28;20477;-70
2021/10/29 09:59:52;;;;;;;5.30;2.60;;;19.90;88.10;;;;;;4966243;28;20026;-67
2021/10/29 10:02:20;;;;;;;5.70;2.58;;;20.00;87.60;;;;;;4966603;28;20023;-67
2021/10/29 10:04:50;;;;;;;6.75;2.95;;;20.20;87.00;;;;;;4964828;28;20122;-67
2021/10/29 10:07:18;;;;;;;;;;;20.00;86.30;;;;;;4973114;28;20073;-66
2021/10/29 10:09:44;;;;;;;4.20;2.60;;;19.80;86.50;;;;;;4965416;28;20323;-67
2021/10/29 10:12:10;;;;;;;5.82;2.10;;;19.90;86.70;;;;;;4958871;28;20028;-69
2021/10/29 10:14:39;;;;;;;6.00;2.50;;;20.00;87.00;;;;;;4964879;28;20035;-69
2021/10/29 10:17:05;;;;;;;5.30;3.08;;;20.30;86.80;;;;;;4958799;28;20027;-69
2021/10/29 10:19:31;;;;;;;6.05;2.78;;;20.30;86.00;;;;;;4955921;28;20042;-70
2021/10/29 10:21:58;;;;;;;3.38;2.20;;;20.50;86.20;;;;;;4963189;28;20033;-68
2021/10/29 10:24:28;;;;;;;4.05;2.65;;;20.40;85.30;;;;;;4964982;28;20236;-67
2021/10/29 10:29:53;;;;;;;7.50;2.72;;;20.70;85.10;;;;;;4968989;28;20038;-68
2021/10/29 10:48:40;;;;;;;5.30;2.42;;;21.60;82.90;;;;;;4957864;28;20042;-67
2021/10/29 10:51:46;;;;;;;7.30;3.33;;;21.90;82.20;;;;;;4971256;28;20033;-68
2021/10/29 11:05:24;;;;;;;4.93;2.15;;;21.40;81.50;;;;;;4967961;28;20035;-69
2021/10/29 11:10:24;;;;;;;6.30;2.55;;;21.30;82.10;;;;;;4971415;28;20050;-68
2021/10/29 11:12:50;;;;;;;4.10;2.30;;;21.30;81.30;;;;;;4971822;28;20030;-68
2021/10/29 11:15:25;;;;;;;7.50;2.53;;;21.00;82.00;;;;;;4972589;28;20019;-68
2021/10/29 11:17:58;;;;;;;4.32;2.10;;;21.10;81.40;;;;;;4969846;28;20023;-68
2021/10/29 11:20:40;;;;;;;7.32;2.42;;;21.20;82.30;;;;;;4972199;28;20058;-69
2021/10/29 11:23:25;;;;;;;4.65;1.88;;;21.20;82.20;;;;;;4972659;28;20373;-68
2021/10/29 11:26:04;;;;;;;5.47;2.13;;;21.30;82.60;;;;;;4970934;28;20057;-68
2021/10/29 11:28:51;;;;;;;3.22;1.70;;;21.40;82.40;;;;;;4967214;28;20023;-68
2021/10/29 11:31:43;;;;;;;7.05;2.38;;;21.40;80.80;;;;;;4971067;28;20026;-68
2021/10/29 11:34:14;;;;;;;4.95;2.42;;;21.10;81.10;;;;;;4964194;28;20105;-68
2021/10/29 11:36:52;;;;;;;4.68;2.33;;;21.00;81.90;;;;;;4965448;28;20064;-68
2021/10/29 11:39:21;;;;;;;6.97;2.22;;;21.10;82.00;;;;;;4960009;28;20565;-68
2021/10/29 11:41:48;;;;;;;5.63;2.05;;;21.10;81.60;;;;;;4967732;28;20583;-68
2021/10/29 11:44:23;;;;;;;7.32;1.77;;;21.10;82.30;;;;;;4962977;28;20023;-68
2021/10/29 11:46:52;;;;;;;6.00;2.00;;;21.20;82.30;;;;;;4961653;28;20015;-69
2021/10/29 11:49:24;;;;;;;6.57;1.90;;;21.20;82.40;;;;;;4966604;28;20050;-68
2021/10/29 11:51:51;;;;;;;4.65;1.70;;;21.20;82.30;;;;;;4956132;28;20082;-68
2021/10/29 11:57:03;;;;;;;6.30;2.15;;;21.30;82.20;;;;;;4965869;28;20070;-68
2021/10/29 12:07:42;;;;;;;5.20;2.17;;;21.20;81.80;;;;;;4959386;28;20049;-70
2021/10/29 12:10:15;;;;;;;4.40;2.20;;;21.10;82.30;;;;;;4964655;28;20066;-70
2021/10/29 12:12:43;;;;;;;4.65;2.35;;;21.10;82.20;;;;;;4962365;28;20472;-68
2021/10/29 12:15:21;;;;;;;6.30;2.03;;;20.90;82.60;;;;;;4961933;28;20033;-67
2021/10/29 12:18:10;;;;;;;5.00;1.73;;;20.90;83.20;;;;;;4968166;28;20480;-69
2021/10/29 12:20:45;;;;;;;4.25;1.90;;;20.90;83.40;;;;;;4970561;28;20027;-69
2021/10/29 12:23:23;;;;;;;5.15;2.17;;;20.80;82.70;;;;;;4968040;28;20382;-70
2021/10/29 12:28:21;;;;;;;6.18;2.33;;;20.70;83.30;;;;;;4960141;28;20120;-69
2021/10/29 13:01:36;;;;;;;5.22;2.03;;;20.10;85.60;;;;;;4959197;28;20032;-70
2021/10/29 13:04:05;;;;;;;4.78;1.80;;;20.10;86.10;;;;;;4960690;28;20026;-70
2021/10/29 13:06:33;;;;;;;5.97;2.37;;;20.00;86.20;;;;;;4973249;28;20118;-70
2021/10/29 13:09:02;;;;;;;7.55;1.80;;;19.90;86.10;;;;;;4975015;28;20030;-70
2021/10/29 13:11:32;;;;;;;9.88;2.20;;;19.80;86.80;;;;;;4973291;28;20138;-70
2021/10/29 13:14:01;;;;;;;5.05;1.85;;;19.70;87.60;;;;;;4962367;28;20042;-71
2021/10/29 13:16:28;;;;;;;3.05;1.50;;;19.70;87.80;;;;;;4962367;28;20018;-70
2021/10/29 13:51:11;;;;;;;6.22;2.35;;;19.00;90.20;;;;;;4961895;28;20548;-68
2021/10/29 13:53:46;;;;;;;5.68;1.85;;;19.00;90.30;;;;;;4963131;28;20043;-69
2021/10/29 13:56:21;;;;;;;12.70;2.40;;;18.90;90.50;;;;;;4965796;28;20022;-68
2021/10/29 13:59:00;;;;;;;3.50;1.73;;;18.90;90.70;;;;;;4963503;28;20031;-69
2021/10/29 14:28:36;;;;;;;8.25;2.22;;;18.40;91.80;;;;;;4962779;28;20397;-70
2021/10/29 14:34:10;;;;;;;5.45;2.45;;;18.40;91.90;;;;;;4946158;28;20046;-70
2021/10/29 14:44:39;;;;;;;7.22;2.70;;;18.00;93.30;;;;;;4970890;28;20034;-69
2021/10/29 14:47:32;;;;;;;5.97;2.38;;;18.00;93.80;;;;;;4959841;28;20038;-69
2021/10/29 15:06:19;;;;;;;7.45;2.78;;;17.40;96.60;;;;;;4969991;28;20484;-70
2021/10/29 15:28:10;;;;;;;6.72;3.15;;;16.80;98.40;;;;;;4957316;28;20035;-70
2021/10/29 15:33:11;;;;;;;7.00;2.67;;;16.80;98.70;;;;;;4962042;28;20030;-69
2021/10/29 15:41:08;;;;;;;10.27;3.50;;;16.80;99.00;;;;;;4962914;28;20077;-69
2021/10/29 15:51:45;;;;;;;;;;;16.60;99.40;;;;;;4966522;28;20034;-69
2021/10/29 15:54:11;;;;;;;;;;;16.50;99.60;;;;;;4959407;28;19920;-68
2021/10/29 15:56:41;;;;;;;3.53;1.88;;;16.40;99.90;;;;;;4961522;28;19964;-69
2021/10/29 15:59:19;;;;;;;4.68;1.63;;;16.30;99.70;;;;;;4962009;28;20092;-69
2021/10/29 16:01:54;;;;;;;6.85;2.42;;;16.30;99.90;;;;;;4961943;28;20070;-69
2021/10/29 16:18:00;;;;;;;3.50;1.55;;;16.20;99.90;;;;;;4964550;28;20039;-69
2021/10/29 16:20:26;;;;;;;4.18;1.52;;;16.20;99.90;;;;;;4957382;28;20035;-69
2021/10/29 16:22:54;;;;;;;5.13;1.42;;;16.10;99.90;;;;;;4969178;28;20034;-69
2021/10/29 16:25:30;;;;;;;3.35;1.75;;;16.10;99.90;;;;;;4960593;28;20026;-69
2021/10/29 16:28:04;;;;;;;4.63;1.85;;;16.00;99.90;;;;;;4963187;28;20038;-69
2021/10/29 16:30:32;;;;;;;7.72;1.65;;;16.00;99.90;;;;;;4957387;28;20030;-68
2021/10/29 16:35:25;;;;;;;3.83;1.42;;;15.90;99.90;;;;;;4959478;28;20066;-70
2021/10/29 16:37:50;;;;;;;3.53;1.40;;;15.90;99.90;;;;;;4963875;28;20396;-69
2021/10/29 16:40:17;;;;;;;4.57;1.23;;;15.80;99.90;;;;;;4957586;28;20023;-70
2021/10/29 16:42:43;;;;;;;3.90;1.20;;;15.80;99.90;;;;;;4963533;28;20037;-70
2021/10/29 16:45:12;;;;;;;5.15;1.83;;;15.70;99.90;;;;;;4961123;28;20438;-68
2021/10/29 16:47:38;;;;;;;5.88;1.10;;;15.70;99.90;;;;;;4960767;28;20372;-69
2021/10/29 16:50:05;;;;;;;3.05;1.77;;;15.60;99.90;;;;;;4964449;28;20070;-69
2021/10/29 16:52:30;;;;;;;4.07;1.42;;;15.60;99.90;;;;;;4961053;28;20031;-69
2021/10/29 16:54:56;;;;;;;4.57;1.52;;;15.60;99.90;;;;;;4967546;28;20041;-69
2021/10/29 16:57:22;;;;;;;6.32;1.58;;;15.70;99.90;;;;;;4970347;28;20665;-69
2021/10/29 16:59:47;;;;;;;3.00;0.95;;;15.50;99.90;;;;;;4969053;28;20035;-69
2021/10/29 17:02:13;;;;;;;3.13;1.35;;;15.50;99.90;;;;;;4962069;28;20054;-71
2021/10/29 17:04:39;;;;;;;2.53;1.60;;;15.50;99.90;;;;;;4956587;28;20022;-69
2021/10/29 17:07:07;;;;;;;3.92;1.45;;;15.50;99.90;;;;;;4954456;28;20019;-69
2021/10/29 17:09:33;;;;;;;6.13;1.25;;;15.50;99.90;;;;;;4952694;28;20028;-69
2021/10/29 17:11:58;;;;;;;5.40;1.60;;;15.50;99.90;;;;;;4957009;28;20531;-69
2021/10/29 17:14:26;;;;;;;8.38;3.00;;;15.40;99.90;;;;;;4954619;28;20110;-69
2021/10/29 17:16:52;;;;;;;4.90;2.30;;;15.50;99.90;;;;;;4960799;28;20033;-69
2021/10/29 17:19:18;;;;;;;3.22;1.20;;;15.50;99.90;;;;;;4959484;28;20498;-69
2021/10/29 17:21:43;;;;;;;5.38;1.67;;;15.40;99.90;;;;;;4954061;28;20031;-69
2021/10/29 17:24:09;;;;;;;3.80;1.10;;;15.40;99.90;;;;;;4962238;28;20019;-69
2021/10/29 17:26:35;;;;;;;2.30;1.08;;;15.40;99.90;;;;;;4956160;28;20035;-70
2021/10/29 17:29:02;;;;;;;4.38;1.80;;;15.30;99.90;;;;;;4957773;28;20031;-69
2021/10/29 17:31:28;;;;;;;5.28;1.30;;;15.30;99.90;;;;;;4955157;28;20031;-69
2021/10/29 17:33:54;;;;;;;2.65;1.40;;;15.30;99.90;;;;;;4957172;28;20030;-69
2021/10/29 17:36:19;;;;;;;2.78;1.45;;;15.20;99.90;;;;;;4958994;28;20649;-70
2021/10/29 17:38:45;;;;;;;4.18;1.48;;;15.20;99.90;;;;;;4956380;28;20038;-69
2021/10/29 17:41:11;;;;;;;4.18;1.73;;;15.20;99.90;;;;;;4965034;28;20027;-70
2021/10/29 17:43:36;;;;;;;4.10;1.33;;;15.20;99.90;;;;;;4956878;28;20119;-69